ADDS METAR Data INFO
IDs: Format: Raw Decoded Include TAF

Data at: 0458 UTC 23 May 2017

KGKY 230453Z AUTO 12006KT 10SM CLR 19/16 A2992 RMK AO2 SLP123 T01890161
KGKY 230353Z AUTO 11008KT 10SM CLR 19/16 A2994 RMK AO2 SLP130 T01940161
KGKY 230253Z AUTO 13009KT 10SM CLR 20/16 A2993 RMK AO2 SLP129 T02000161 53009
KGKY 230153Z AUTO 12009KT 10SM CLR 21/16 A2991 RMK AO2 SLP123 T02110161
KGKY 230053Z 09008KT 10SM CLR 23/16 A2991 RMK AO2 SLP121 T02280156
KGKY 222353Z 12008KT 10SM SCT037 BKN049 BKN060 24/16 A2990 RMK AO2 SLP119 T02390156 10261 20233 57016
KGKY 222253Z 09006KT 10SM CLR 24/16 A2992 RMK AO2 SLP124 T02440156
KGKY 222153Z 13007KT 10SM FEW039 OVC065 25/16 A2993 RMK AO2 SLP129 T02500156
KGKY 222053Z 09008KT 10SM BKN047 BKN055 26/16 A2995 RMK AO2 SLP135 T02560156 56027
KGKY 221953Z 10010KT 070V130 10SM BKN038 25/15 A2997 RMK AO2 SLP142 T02500150
KGKY 221853Z 11009KT 10SM OVC034 24/16 A2999 RMK AO2 SLP150 T02440156
KGKY 221753Z VRB06KT 10SM OVC031 23/16 A3003 RMK AO2 SLP163 6//// T02330156 10239 20167 58014
KGKY 221740Z 11008KT 10SM BKN029 23/16 A3004 RMK AO2 T02330156
KGKY 221715Z 00000KT 10SM SCT027 23/16 A3005 RMK AO2 T02280156
KGKY 221704Z 07005KT 10SM BKN026 23/16 A3006 RMK AO2 T02280156
KGKY 221653Z 00000KT 10SM SCT026 22/15 A3006 RMK AO2 SLP174 T02220150
KGKY 221553Z 04007KT 10SM FEW022 BKN033 21/15 A3007 RMK AO2 SLP177 T02110150
KGKY 221453Z 08007KT 10SM CLR 19/15 A3008 RMK AO2 SLP178 6//// T01940150 56004 $
KGKY 221400Z 09006KT 10SM FEW028 18/14 A3008 RMK AO2 T01830144 $
KGKY 221353Z 08006KT 10SM BKN028 18/14 A3008 RMK AO2 SLP179 T01830144 $
KGKY 221253Z 09004KT 10SM BKN025 17/14 A3008 RMK AO2 SLP177 T01720144 PNO $
KGKY 221203Z 06005KT 10SM BKN019 OVC085 17/15 A3009 RMK AO2 T01670150 PNO $
KGKY 221153Z 07004KT 10SM SCT019 BKN085 17/15 A3009 RMK AO2 SLP181 6//// 7//// T01670150 10183 20167 55003 PNO $
KGKY 221128Z AUTO 05005KT 10SM SCT027 17/14 A3009 RMK AO2 T01670144 PNO $
KGKY 221053Z AUTO 04003KT 10SM BKN020 BKN024 OVC110 17/15 A3008 RMK AO2 RAE30 SLP181 T01720150 PNO $
KGKY 220953Z AUTO 00000KT 10SM -RA SCT110 17/15 A3009 RMK AO2 SLP183 T01670150 PNO $
KGKY 220853Z AUTO 15008KT 10SM -RA OVC110 17/16 A3009 RMK AO2 SLP184 6//// T01720156 58001 PNO $
KGKY 220753Z AUTO 11003KT 10SM -RA BKN120 18/17 A3011 RMK AO2 SLP188 T01780167 PNO $
KGKY 220653Z AUTO 11004KT 10SM -RA OVC100 18/16 A3012 RMK AO2 SLP193 P0000 T01780156 $
KGKY 220553Z AUTO 06005KT 10SM RA OVC100 18/16 A3010 RMK AO2 SLP185 P0000 60000 T01830156 10244 20183 402610167 58002 $
KGKY 220501Z AUTO 16003KT 10SM -RA SCT065 BKN090 OVC110 18/16 A3015 RMK AO2 P0000 T01830156 $
KGKY 220453Z AUTO 18004KT 10SM VCTS -RA BKN065 BKN090 OVC110 19/16 A3014 RMK AO2 LTG DSNT E RAB33 SLP201 P0000 T01890156 $
KGKY 220446Z AUTO 19006KT 10SM VCTS -RA BKN065 OVC085 19/15 A3015 RMK AO2 LTG DSNT E RAB33 P0000 T01940150 $
KGKY 220353Z AUTO 16006KT 10SM BKN070 21/14 A3012 RMK AO2 SLP192 T02110139 $
KGKY 220253Z AUTO 21003KT 10SM FEW110 20/14 A3011 RMK AO2 LTG DSNT S SLP189 T02000144 53008 $
KGKY 220153Z AUTO 13003KT 10SM SCT120 22/13 A3009 RMK AO2 SLP185 T02220128 $
KGKY 220053Z 08004KT 10SM BKN120 24/12 A3007 RMK AO2 SLP175 T02390117 $
KGKY 212353Z 08005KT 10SM BKN070 OVC110 24/10 A3008 RMK AO2 SLP179 T02440100 10261 20228 56008 $
KGKY 212253Z 05007KT 10SM OVC100 25/10 A3008 RMK AO2 SLP180 T02500100 $
KGKY 212153Z 04008KT 10SM BKN095 26/10 A3009 RMK AO2 SLP183 T02560100 $
KGKY 212053Z 06009KT 10SM FEW070 26/09 A3011 RMK AO2 SLP187 T02560094 56016 $
KGKY 211953Z 07009KT 10SM BKN100 25/08 A3012 RMK AO2 SLP192 T02500083 $
KGKY 211853Z 05011G18KT 10SM CLR 24/08 A3012 RMK AO2 SLP191 T02440078 $
KGKY 211753Z 04011KT 10SM CLR 23/11 A3015 RMK AO2 SLP203 6//// T02330106 10233 20167 58017 $


Page loaded:  04:58 UTC  |   09:58 PM Pacific  |   10:58 PM Mountain  |   11:58 PM Central  |   12:58 AM Eastern

 

ADVISORIES

FORECASTS

FORECASTS

OBSERVATIONS

USER TOOLS

ABOUT US